aviador You're here:

LEMG Decoded Metar

MALAGA in SPAIN
Report Time2018-01-20 05:00:00
UTC Time2018-01-20 05:15:08
Flight Rules vfr VFR
Wind270° at 13 kt
W.Decomp.*RWY 30: 11.4 kt HW 6.3 kt LCW
RWY 31: 10.1 kt HW 8.2 kt LCW
W.Rank270° ranks 8
Current wind is above 270° avg. (8.7)
Visibility9999 m
Phenomena:N/A
Clouds:N/A
Expected CloudBase > 2,800 ft AGL from Temp-Dew spread
CeilingNone
Temp14°C (ISA -1)
Dew Point07°C (63% RH)
AAT8.6°C
QNH1024 hPa
Density Alt-325 ft
Elevation23 ft
Report Wrong Elevation
Raw Report
LEMG 200500Z 27013KT 240V300 CAVOK 14/07 Q1024 NOSIG=

Extra information for LEMG:More info

Metar Taf Metar & Taf Last 4 Metars F.Rules Stats Wind Profile Meteogram Temp Stats Airport Information Weather charts Add Link Nearby VenuesMetar ALERT Operation Metar Decoded Social comments